Time;durP1;ratioP1;P1;durP2;ratioP2;P2;SDS_P1;SDS_P2;PMS_P1;PMS_P2;Temp;Humidity;BMP_temperature;BMP_pressure;BME280_temperature;BME280_humidity;BME280_pressure;Samples;Min_cycle;Max_cycle;Signal;HPM_P1;HPM_P2
2023/01/25 00:02:02;;;;;;;57.27;34.67;;;0.50;96.90;;;;;;4718986;30;20040;-78
2023/01/25 00:04:28;;;;;;;57.00;33.60;;;0.50;97.10;;;;;;4719225;30;20397;-78
2023/01/25 00:06:53;;;;;;;58.17;35.03;;;0.50;97.10;;;;;;4701719;30;20045;-77
2023/01/25 00:09:20;;;;;;;58.07;34.77;;;0.50;97.10;;;;;;4719565;30;20421;-78
2023/01/25 00:11:46;;;;;;;56.23;33.70;;;0.50;97.10;;;;;;4689640;30;20071;-78
2023/01/25 00:14:13;;;;;;;56.73;33.27;;;0.40;97.10;;;;;;4702673;30;20076;-77
2023/01/25 00:16:39;;;;;;;56.50;33.70;;;0.40;97.10;;;;;;4720801;30;20130;-77
2023/01/25 00:19:07;;;;;;;58.30;35.80;;;0.40;97.10;;;;;;4700416;30;20057;-78
2023/01/25 00:21:33;;;;;;;58.00;34.60;;;0.40;97.00;;;;;;4716355;30;20417;-77
2023/01/25 00:24:00;;;;;;;56.27;34.90;;;0.40;97.10;;;;;;4718906;30;20053;-79
2023/01/25 00:26:28;;;;;;;58.97;34.43;;;0.50;97.10;;;;;;4723468;30;20735;-78
2023/01/25 00:28:55;;;;;;;59.70;35.05;;;0.50;97.00;;;;;;4721672;30;20052;-78
2023/01/25 00:31:32;;;;;;;58.73;34.33;;;0.40;97.10;;;;;;4704755;30;20132;-78
2023/01/25 00:34:25;;;;;;;58.67;33.83;;;0.40;97.00;;;;;;4717811;30;20047;-78
2023/01/25 00:36:54;;;;;;;60.57;36.40;;;0.40;96.90;;;;;;4717093;30;20049;-79
2023/01/25 00:39:19;;;;;;;65.07;36.05;;;0.40;97.00;;;;;;4721084;30;20075;-77
2023/01/25 00:41:45;;;;;;;63.43;36.20;;;0.40;97.00;;;;;;4723712;30;21321;-79
2023/01/25 00:44:11;;;;;;;63.30;36.70;;;0.40;97.00;;;;;;4704502;30;20048;-77
2023/01/25 00:46:36;;;;;;;65.87;37.93;;;0.40;97.00;;;;;;4723323;30;20052;-79
2023/01/25 00:49:02;;;;;;;61.47;36.67;;;0.40;97.10;;;;;;4718648;30;20063;-78
2023/01/25 00:51:27;;;;;;;64.13;37.30;;;0.40;97.10;;;;;;4690032;30;20843;-78
2023/01/25 00:53:53;;;;;;;63.17;37.10;;;0.40;97.10;;;;;;4721539;30;20053;-77
2023/01/25 00:56:19;;;;;;;64.67;38.03;;;0.40;97.10;;;;;;4705964;30;20052;-78
2023/01/25 00:58:44;;;;;;;66.40;37.97;;;0.40;97.10;;;;;;4723147;30;20400;-78
2023/01/25 01:01:10;;;;;;;65.67;37.10;;;0.40;97.10;;;;;;4725700;30;20072;-78
2023/01/25 01:03:36;;;;;;;61.20;37.27;;;0.40;97.00;;;;;;4723913;30;20049;-78
2023/01/25 01:06:04;;;;;;;64.20;38.00;;;0.40;97.00;;;;;;4722577;30;20053;-78
2023/01/25 01:08:33;;;;;;;65.53;37.85;;;0.50;97.00;;;;;;4705150;30;20052;-79
2023/01/25 01:11:04;;;;;;;69.82;39.45;;;0.40;97.00;;;;;;4718347;30;20080;-77
2023/01/25 01:13:30;;;;;;;63.47;38.33;;;0.40;97.00;;;;;;4707031;30;20399;-78
2023/01/25 01:15:59;;;;;;;67.67;40.53;;;0.40;97.00;;;;;;4717068;30;20707;-79
2023/01/25 01:18:24;;;;;;;68.70;39.92;;;0.40;97.00;;;;;;4703335;30;20203;-77
2023/01/25 01:20:51;;;;;;;66.87;40.13;;;0.30;97.10;;;;;;4700982;30;20457;-79
2023/01/25 01:23:18;;;;;;;66.13;38.67;;;0.30;97.10;;;;;;4706608;30;20098;-78
2023/01/25 01:25:43;;;;;;;68.60;39.40;;;0.40;97.20;;;;;;4720247;30;20041;-79
2023/01/25 01:28:09;;;;;;;69.27;39.57;;;0.30;97.20;;;;;;4717168;30;20848;-79
2023/01/25 01:30:36;;;;;;;70.83;40.53;;;0.40;97.20;;;;;;4721045;30;20680;-78
2023/01/25 01:33:01;;;;;;;73.07;39.17;;;0.40;97.20;;;;;;4718397;30;20060;-79
2023/01/25 01:35:31;;;;;;;66.33;38.80;;;0.40;97.20;;;;;;4721691;30;20533;-79
2023/01/25 01:37:58;;;;;;;68.50;40.53;;;0.40;97.20;;;;;;4704099;30;20060;-79
2023/01/25 01:40:24;;;;;;;71.27;41.03;;;0.40;97.20;;;;;;4717422;30;20462;-79
2023/01/25 01:42:57;;;;;;;67.00;40.20;;;0.40;97.20;;;;;;4704882;30;20079;-79
2023/01/25 01:45:42;;;;;;;70.87;39.80;;;0.40;97.10;;;;;;4705678;30;20128;-79
2023/01/25 01:48:16;;;;;;;74.47;41.13;;;0.30;97.00;;;;;;4703301;30;20065;-78
2023/01/25 01:50:42;;;;;;;71.70;41.00;;;0.30;97.10;;;;;;4717283;30;20498;-78
2023/01/25 01:53:08;;;;;;;69.93;39.87;;;0.30;97.20;;;;;;4702120;30;20114;-79
2023/01/25 01:55:35;;;;;;;67.47;38.20;;;0.20;97.20;;;;;;4702983;30;20048;-79
2023/01/25 01:58:02;;;;;;;66.23;37.57;;;0.20;97.10;;;;;;4716495;30;20068;-78
2023/01/25 02:00:35;;;;;;;68.27;38.47;;;0.20;97.10;;;;;;4720961;30;20060;-79
2023/01/25 02:03:00;;;;;;;67.57;38.17;;;0.20;97.10;;;;;;4705394;30;20064;-78
2023/01/25 02:05:39;;;;;;;66.07;37.10;;;0.20;97.20;;;;;;4718179;30;20049;-78
2023/01/25 02:08:08;;;;;;;64.27;36.90;;;0.10;97.00;;;;;;4720095;30;20095;-79
2023/01/25 02:10:34;;;;;;;71.30;37.45;;;0.10;97.00;;;;;;4704642;30;20510;-79
2023/01/25 02:13:00;;;;;;;71.10;38.83;;;0.10;97.10;;;;;;4689954;30;20162;-79
2023/01/25 02:15:37;;;;;;;70.60;38.07;;;0.10;97.10;;;;;;4705779;30;20072;-79
2023/01/25 02:18:02;;;;;;;65.50;37.20;;;0.10;97.10;;;;;;4717507;30;20076;-80
2023/01/25 02:20:36;;;;;;;68.80;37.77;;;0.00;97.10;;;;;;4719594;30;20131;-79
2023/01/25 02:23:07;;;;;;;66.73;36.97;;;0.00;97.10;;;;;;4717641;30;20139;-78
2023/01/25 02:25:33;;;;;;;70.07;37.57;;;0.00;97.10;;;;;;4704607;30;20063;-79
2023/01/25 02:28:08;;;;;;;68.77;38.00;;;0.00;97.10;;;;;;4721289;30;20044;-80
2023/01/25 02:30:34;;;;;;;69.40;37.97;;;0.00;97.40;;;;;;4716408;30;20080;-78
2023/01/25 02:33:00;;;;;;;72.87;39.73;;;0.00;97.10;;;;;;4714192;30;20164;-80
2023/01/25 02:35:48;;;;;;;67.23;37.70;;;0.00;97.10;;;;;;4704579;30;20053;-78
2023/01/25 02:38:16;;;;;;;68.47;38.03;;;0.00;97.10;;;;;;4701785;30;20052;-78
2023/01/25 02:40:45;;;;;;;64.80;36.23;;;-0.10;97.10;;;;;;4718487;30;20065;-78
2023/01/25 02:43:11;;;;;;;;;;;-0.10;97.10;;;;;;4703945;30;20315;-79
2023/01/25 02:45:36;;;;;;;68.60;37.00;;;-0.10;97.20;;;;;;4706051;30;19927;-79
2023/01/25 02:48:02;;;;;;;70.20;37.90;;;-0.10;97.30;;;;;;4702781;30;20056;-80
2023/01/25 02:50:28;;;;;;;68.23;38.00;;;-0.10;97.10;;;;;;4702543;30;20068;-78
2023/01/25 02:52:53;;;;;;;70.97;39.20;;;-0.10;97.10;;;;;;4689009;30;20565;-79
2023/01/25 02:55:19;;;;;;;70.87;39.00;;;-0.20;97.10;;;;;;4690249;30;20079;-79
2023/01/25 02:57:44;;;;;;;69.67;39.87;;;-0.10;97.10;;;;;;4722119;30;20841;-79
2023/01/25 03:00:10;;;;;;;76.70;40.33;;;-0.10;97.10;;;;;;4706816;30;20220;-79
2023/01/25 03:02:36;;;;;;;74.07;40.97;;;-0.10;97.00;;;;;;4692418;30;20090;-79
2023/01/25 03:05:01;;;;;;;71.17;39.53;;;-0.20;97.10;;;;;;4706003;30;20044;-78
2023/01/25 03:07:27;;;;;;;75.33;41.27;;;-0.20;97.30;;;;;;4721196;30;20057;-80
2023/01/25 03:09:53;;;;;;;73.67;40.97;;;-0.10;97.00;;;;;;4704056;30;20145;-79
2023/01/25 03:12:18;;;;;;;76.67;41.77;;;-0.20;97.00;;;;;;4717075;30;20094;-78
2023/01/25 03:14:44;;;;;;;76.13;41.50;;;-0.10;97.00;;;;;;4720539;30;20036;-79
2023/01/25 03:17:10;;;;;;;76.83;42.80;;;-0.20;97.00;;;;;;4720061;30;20056;-79
2023/01/25 03:19:35;;;;;;;78.13;42.90;;;-0.20;96.90;;;;;;4719225;30;20427;-78
2023/01/25 03:22:01;;;;;;;76.83;43.70;;;-0.20;96.90;;;;;;4719202;30;20112;-79
2023/01/25 03:24:27;;;;;;;80.17;44.20;;;-0.20;96.80;;;;;;4719670;30;20463;-78
2023/01/25 03:27:12;;;;;;;83.50;45.47;;;-0.20;96.90;;;;;;4701364;30;20044;-79
2023/01/25 03:29:41;;;;;;;81.20;46.23;;;-0.20;96.90;;;;;;4690317;30;20087;-79
2023/01/25 03:32:07;;;;;;;79.15;43.90;;;-0.20;96.90;;;;;;4704390;30;20063;-79
2023/01/25 03:34:33;;;;;;;82.37;45.77;;;-0.20;96.80;;;;;;4704110;30;20057;-79
2023/01/25 03:36:58;;;;;;;81.73;46.47;;;-0.30;96.80;;;;;;4720087;30;20051;-79
2023/01/25 03:39:24;;;;;;;78.67;45.00;;;-0.20;96.90;;;;;;4704848;30;20051;-79
2023/01/25 03:41:49;;;;;;;82.27;47.43;;;-0.20;96.80;;;;;;4704071;30;20057;-79
2023/01/25 03:44:15;;;;;;;78.87;45.60;;;-0.20;97.10;;;;;;4705723;30;20131;-79
2023/01/25 03:46:41;;;;;;;81.43;45.93;;;-0.20;96.80;;;;;;4718474;30;20071;-79
2023/01/25 03:49:07;;;;;;;84.97;47.43;;;-0.20;96.70;;;;;;4719925;30;20152;-78
2023/01/25 03:51:33;;;;;;;83.60;46.50;;;-0.20;96.80;;;;;;4702410;30;20061;-78
2023/01/25 03:53:59;;;;;;;83.03;47.30;;;-0.20;96.80;;;;;;4720214;30;20065;-78
2023/01/25 03:56:25;;;;;;;86.77;47.87;;;-0.20;96.70;;;;;;4702864;30;20098;-78
2023/01/25 03:58:50;;;;;;;90.30;49.07;;;-0.20;96.80;;;;;;4718845;30;20536;-79
2023/01/25 04:01:16;;;;;;;83.67;47.87;;;-0.20;96.80;;;;;;4707520;30;21020;-78
2023/01/25 04:03:41;;;;;;;86.40;49.27;;;-0.10;97.10;;;;;;4722291;30;20040;-78
2023/01/25 04:06:07;;;;;;;84.63;48.37;;;-0.20;96.80;;;;;;4708768;30;20973;-79
2023/01/25 04:08:34;;;;;;;85.97;48.53;;;-0.20;96.70;;;;;;4705185;30;20084;-79
2023/01/25 04:11:02;;;;;;;95.03;52.03;;;-0.20;96.80;;;;;;4721330;30;20059;-79
2023/01/25 04:13:28;;;;;;;94.32;52.05;;;-0.10;96.80;;;;;;4706473;30;20053;-79
2023/01/25 04:15:54;;;;;;;92.63;50.27;;;-0.20;96.60;;;;;;4706413;30;20149;-78
2023/01/25 04:18:20;;;;;;;92.17;50.83;;;-0.10;96.70;;;;;;4705748;30;20055;-79
2023/01/25 04:20:51;;;;;;;87.70;50.77;;;-0.10;96.70;;;;;;4704999;30;20052;-78
2023/01/25 04:23:16;;;;;;;89.87;51.17;;;-0.10;96.60;;;;;;4702922;30;20514;-79
2023/01/25 04:25:42;;;;;;;86.23;50.40;;;-0.20;96.50;;;;;;4705171;30;20059;-77
2023/01/25 04:28:07;;;;;;;96.07;52.73;;;-0.20;96.50;;;;;;4720303;30;20512;-79
2023/01/25 04:30:33;;;;;;;91.03;50.97;;;-0.20;96.60;;;;;;4722012;30;20218;-79
2023/01/25 04:33:03;;;;;;;92.83;52.13;;;-0.10;96.70;;;;;;4719041;30;20032;-78
2023/01/25 04:35:29;;;;;;;91.47;50.67;;;-0.10;96.70;;;;;;4722490;30;20575;-79
2023/01/25 04:37:58;;;;;;;95.47;52.27;;;-0.10;96.70;;;;;;4719052;30;20045;-79
2023/01/25 04:40:24;;;;;;;85.50;50.67;;;0.00;96.70;;;;;;4719885;30;20056;-79
2023/01/25 04:42:50;;;;;;;90.80;51.17;;;0.00;96.60;;;;;;4704755;30;20496;-79
2023/01/25 04:45:16;;;;;;;90.43;51.23;;;0.00;96.60;;;;;;4723133;30;20055;-79
2023/01/25 04:47:41;;;;;;;96.50;51.47;;;0.00;96.50;;;;;;4720588;30;20534;-79
2023/01/25 04:50:07;;;;;;;91.03;51.53;;;0.00;96.50;;;;;;4722256;30;20064;-78
2023/01/25 04:52:33;;;;;;;89.03;48.90;;;0.00;96.50;;;;;;4718529;30;20068;-78
2023/01/25 04:54:58;;;;;;;87.77;51.17;;;0.00;96.50;;;;;;4722046;30;20075;-79
2023/01/25 04:57:24;;;;;;;83.70;48.23;;;0.00;96.60;;;;;;4722125;30;20131;-78
2023/01/25 04:59:49;;;;;;;86.77;48.93;;;0.00;96.50;;;;;;4709278;30;20040;-78
2023/01/25 05:02:15;;;;;;;86.10;49.23;;;0.00;96.50;;;;;;4726724;30;20064;-80
2023/01/25 05:04:40;;;;;;;83.10;48.13;;;-0.10;96.40;;;;;;4708036;30;20136;-79
2023/01/25 05:07:06;;;;;;;78.87;45.77;;;-0.10;96.60;;;;;;4725506;30;20860;-79
2023/01/25 05:09:32;;;;;;;77.50;45.40;;;-0.20;96.20;;;;;;4706382;30;20049;-78
2023/01/25 05:11:57;;;;;;;81.77;45.23;;;-0.20;96.20;;;;;;4720386;30;20140;-79
2023/01/25 05:14:23;;;;;;;82.63;45.40;;;-0.30;96.20;;;;;;4720476;30;20051;-78
2023/01/25 05:16:49;;;;;;;78.60;45.53;;;-0.30;96.30;;;;;;4703657;30;20060;-78
2023/01/25 05:19:14;;;;;;;85.17;47.20;;;-0.30;96.30;;;;;;4720092;30;20183;-78
2023/01/25 05:21:58;;;;;;;82.37;47.50;;;-0.30;96.30;;;;;;4720231;30;20045;-78
2023/01/25 05:24:28;;;;;;;83.10;46.20;;;-0.20;96.30;;;;;;4718693;30;20052;-79
2023/01/25 05:27:04;;;;;;;79.33;46.80;;;-0.30;96.10;;;;;;4690546;30;20072;-79
2023/01/25 05:29:34;;;;;;;83.50;46.90;;;-0.30;96.10;;;;;;4720331;30;20056;-79
2023/01/25 05:32:01;;;;;;;82.63;47.67;;;-0.30;96.20;;;;;;4703291;30;20049;-79
2023/01/25 05:34:27;;;;;;;88.57;47.40;;;-0.30;96.20;;;;;;4722008;30;20049;-79
2023/01/25 05:36:53;;;;;;;85.03;47.87;;;-0.30;96.20;;;;;;4704063;30;20427;-80
2023/01/25 05:39:19;;;;;;;85.40;48.97;;;-0.30;96.30;;;;;;4719387;30;20041;-78
2023/01/25 05:41:44;;;;;;;101.00;49.17;;;-0.30;96.20;;;;;;4692388;30;20078;-80
2023/01/25 05:44:10;;;;;;;82.37;47.90;;;-0.30;96.30;;;;;;4717218;30;20060;-79
2023/01/25 05:46:35;;;;;;;82.90;47.87;;;-0.30;96.30;;;;;;4706476;30;20608;-79
2023/01/25 05:49:01;;;;;;;80.77;47.27;;;-0.30;96.30;;;;;;4699819;30;20057;-78
2023/01/25 05:51:27;;;;;;;86.57;49.17;;;-0.30;96.00;;;;;;4722442;30;20052;-79
2023/01/25 05:53:55;;;;;;;84.93;48.73;;;-0.30;96.00;;;;;;4719420;30;20049;-79
2023/01/25 05:56:22;;;;;;;89.32;50.67;;;-0.30;96.20;;;;;;4705527;30;20091;-79
2023/01/25 05:58:55;;;;;;;91.00;49.73;;;-0.30;96.10;;;;;;4705819;30;20119;-78
2023/01/25 06:01:20;;;;;;;89.03;51.17;;;-0.20;96.30;;;;;;4704096;30;20510;-79
2023/01/25 06:03:47;;;;;;;90.47;50.17;;;-0.20;96.30;;;;;;4702385;30;20055;-79
2023/01/25 06:06:13;;;;;;;86.63;48.07;;;-0.20;96.30;;;;;;4718620;30;20056;-78
2023/01/25 06:08:38;;;;;;;83.40;47.30;;;-0.20;96.20;;;;;;4704863;30;20048;-79
2023/01/25 06:11:09;;;;;;;87.03;49.57;;;-0.20;96.20;;;;;;4720553;30;20093;-79
2023/01/25 06:13:34;;;;;;;83.20;48.33;;;-0.20;96.10;;;;;;4704193;30;20080;-79
2023/01/25 06:16:00;;;;;;;82.60;47.90;;;-0.20;96.10;;;;;;4688221;30;20131;-80
2023/01/25 06:18:27;;;;;;;95.60;48.37;;;-0.20;96.10;;;;;;4719838;30;20090;-79
2023/01/25 06:20:56;;;;;;;85.30;47.43;;;-0.20;96.10;;;;;;4717840;30;20654;-79
2023/01/25 06:23:21;;;;;;;81.25;46.92;;;-0.20;96.10;;;;;;4718035;30;20139;-79
2023/01/25 06:25:47;;;;;;;79.07;46.67;;;-0.20;96.20;;;;;;4720665;30;20584;-79
2023/01/25 06:28:13;;;;;;;79.63;46.90;;;-0.20;96.20;;;;;;4717690;30;20053;-79
2023/01/25 06:30:38;;;;;;;80.90;46.47;;;-0.20;96.20;;;;;;4717410;30;20037;-79
2023/01/25 06:33:04;;;;;;;75.27;45.37;;;-0.20;96.10;;;;;;4699076;30;20055;-78
2023/01/25 06:35:31;;;;;;;81.00;45.00;;;-0.20;96.10;;;;;;4704021;30;20053;-79
2023/01/25 06:37:58;;;;;;;77.83;45.10;;;-0.20;95.90;;;;;;4705951;30;20771;-78
2023/01/25 06:40:24;;;;;;;82.57;47.80;;;-0.30;95.90;;;;;;4722531;30;20059;-79
2023/01/25 06:42:50;;;;;;;82.43;45.43;;;-0.30;96.00;;;;;;4709211;30;20056;-79
2023/01/25 06:45:16;;;;;;;75.83;44.97;;;-0.30;96.10;;;;;;4721846;30;20048;-79
2023/01/25 06:47:41;;;;;;;79.90;44.30;;;-0.30;96.00;;;;;;4724101;30;20044;-80
2023/01/25 06:50:08;;;;;;;77.87;43.87;;;-0.30;96.00;;;;;;4721238;30;20064;-79
2023/01/25 06:52:37;;;;;;;76.17;43.57;;;-0.20;96.10;;;;;;4705141;30;20919;-79
2023/01/25 06:55:04;;;;;;;78.40;44.67;;;-0.20;96.00;;;;;;4705570;30;20407;-79
2023/01/25 06:57:30;;;;;;;77.47;44.03;;;-0.30;96.00;;;;;;4700445;30;20320;-79
2023/01/25 06:59:55;;;;;;;73.27;43.77;;;-0.30;96.10;;;;;;4705506;30;20485;-79
2023/01/25 07:02:21;;;;;;;76.50;44.03;;;-0.30;96.10;;;;;;4699495;30;20091;-78
2023/01/25 07:04:47;;;;;;;77.13;44.30;;;-0.30;96.10;;;;;;4703287;30;20059;-80
2023/01/25 07:07:13;;;;;;;73.33;43.27;;;-0.30;96.10;;;;;;4702537;30;20141;-80
2023/01/25 07:09:38;;;;;;;80.80;41.30;;;-0.20;96.30;;;;;;4702387;30;20048;-79
2023/01/25 07:12:04;;;;;;;68.77;40.63;;;-0.30;96.20;;;;;;4704539;30;20049;-80
2023/01/25 07:14:30;;;;;;;69.37;41.10;;;-0.30;96.20;;;;;;4702861;30;20045;-79
2023/01/25 07:16:56;;;;;;;66.43;39.03;;;-0.40;96.10;;;;;;4702015;30;20059;-80
2023/01/25 07:19:22;;;;;;;73.27;42.10;;;-0.40;96.00;;;;;;4703488;30;20108;-78
2023/01/25 07:21:48;;;;;;;71.23;41.67;;;-0.40;96.20;;;;;;4703801;30;20052;-78
2023/01/25 07:24:16;;;;;;;72.93;41.23;;;-0.40;96.30;;;;;;4713338;30;20044;-79
2023/01/25 07:26:41;;;;;;;74.20;42.87;;;-0.30;96.30;;;;;;4703286;30;20057;-79
2023/01/25 07:29:12;;;;;;;69.03;40.53;;;-0.40;96.30;;;;;;4712917;30;20718;-79
2023/01/25 07:31:37;;;;;;;76.90;43.60;;;-0.30;96.30;;;;;;4701438;30;20495;-79
2023/01/25 07:34:03;;;;;;;73.10;41.60;;;-0.40;96.30;;;;;;4702258;30;20051;-79
2023/01/25 07:36:29;;;;;;;90.20;50.97;;;-0.40;96.30;;;;;;4706749;30;20508;-79
2023/01/25 07:38:56;;;;;;;109.43;66.90;;;-0.30;96.40;;;;;;4723164;30;20165;-80
2023/01/25 07:41:23;;;;;;;75.93;46.07;;;-0.30;96.50;;;;;;4704583;30;20052;-79
2023/01/25 07:43:49;;;;;;;80.77;48.97;;;-0.30;96.50;;;;;;4694725;30;20059;-79
2023/01/25 07:46:15;;;;;;;74.63;43.63;;;-0.30;96.40;;;;;;4705564;30;20049;-80
2023/01/25 07:48:45;;;;;;;79.17;45.43;;;-0.30;96.20;;;;;;4703917;30;20119;-78
2023/01/25 07:51:22;;;;;;;67.90;40.57;;;-0.40;96.20;;;;;;4719101;30;20119;-80
2023/01/25 07:53:55;;;;;;;73.43;42.73;;;-0.40;96.30;;;;;;4700773;30;20045;-80
2023/01/25 07:56:23;;;;;;;77.17;41.33;;;-0.40;96.20;;;;;;4703816;30;20983;-79
2023/01/25 07:58:50;;;;;;;76.55;42.05;;;-0.40;96.30;;;;;;4702499;30;20056;-79
2023/01/25 08:01:18;;;;;;;72.70;42.40;;;-0.40;96.20;;;;;;4704595;30;20055;-79
2023/01/25 08:03:45;;;;;;;75.15;42.10;;;-0.40;96.30;;;;;;4705444;30;20057;-78
2023/01/25 08:06:11;;;;;;;72.33;41.87;;;-0.40;96.30;;;;;;4702467;30;20063;-80
2023/01/25 08:08:48;;;;;;;77.70;44.20;;;-0.40;96.30;;;;;;4704808;30;21345;-79
2023/01/25 08:11:20;;;;;;;72.03;41.70;;;-0.40;96.40;;;;;;4701513;30;20045;-80
2023/01/25 08:13:48;;;;;;;70.93;40.57;;;-0.40;96.40;;;;;;4702875;30;20099;-80
2023/01/25 08:16:16;;;;;;;73.63;41.47;;;-0.40;96.40;;;;;;4703022;30;20053;-79
2023/01/25 08:18:42;;;;;;;71.90;40.10;;;-0.40;96.40;;;;;;4705426;30;20051;-80
2023/01/25 08:21:08;;;;;;;72.40;40.77;;;-0.40;96.40;;;;;;4715600;30;20093;-80
2023/01/25 08:23:34;;;;;;;80.67;42.37;;;-0.50;96.40;;;;;;4688427;30;20334;-80
2023/01/25 08:26:06;;;;;;;79.20;44.83;;;-0.50;96.40;;;;;;4689050;30;21718;-79
2023/01/25 08:28:32;;;;;;;77.67;42.13;;;-0.50;96.50;;;;;;4704798;30;20540;-79
2023/01/25 08:31:11;;;;;;;76.07;42.63;;;-0.50;96.50;;;;;;4717966;30;20052;-79
2023/01/25 08:33:38;;;;;;;77.33;41.97;;;-0.50;96.60;;;;;;4703562;30;20057;-79
2023/01/25 08:36:07;;;;;;;81.67;44.03;;;-0.40;96.70;;;;;;4700169;30;20048;-79
2023/01/25 08:38:33;;;;;;;77.68;44.53;;;-0.40;96.70;;;;;;4703372;30;20072;-80
2023/01/25 08:41:14;;;;;;;85.87;42.37;;;-0.40;96.70;;;;;;4691003;30;20084;-79
2023/01/25 08:43:40;;;;;;;80.47;44.07;;;-0.30;96.70;;;;;;4714965;30;20053;-80
2023/01/25 08:46:06;;;;;;;75.70;42.97;;;-0.30;96.60;;;;;;4687831;30;20049;-79
2023/01/25 08:48:31;;;;;;;80.30;43.90;;;-0.40;96.50;;;;;;4701400;30;20516;-79
2023/01/25 08:50:57;;;;;;;101.90;44.07;;;-0.40;96.60;;;;;;4699845;30;20052;-79
2023/01/25 08:53:23;;;;;;;84.40;47.23;;;-0.50;96.70;;;;;;4718409;30;20084;-79
2023/01/25 08:55:49;;;;;;;83.47;46.70;;;-0.40;96.80;;;;;;4701166;30;20128;-78
2023/01/25 08:58:18;;;;;;;82.83;44.10;;;-0.40;96.90;;;;;;4707833;30;20052;-79
2023/01/25 09:00:44;;;;;;;90.60;47.77;;;-0.40;96.80;;;;;;4701728;30;20085;-81
2023/01/25 09:03:10;;;;;;;83.13;45.03;;;-0.40;96.90;;;;;;4702118;30;20068;-78
2023/01/25 09:05:37;;;;;;;82.47;43.93;;;-0.40;96.80;;;;;;4688723;30;20060;-78
2023/01/25 09:08:05;;;;;;;77.53;42.47;;;-0.30;96.80;;;;;;4701761;30;20147;-79
2023/01/25 09:10:30;;;;;;;80.27;42.50;;;-0.30;96.80;;;;;;4704121;30;20138;-78
2023/01/25 09:12:56;;;;;;;77.77;41.97;;;-0.40;96.80;;;;;;4701552;30;20057;-79
2023/01/25 09:15:22;;;;;;;75.10;40.70;;;-0.30;96.80;;;;;;4690209;30;20065;-78
2023/01/25 09:17:52;;;;;;;77.17;42.07;;;-0.40;96.70;;;;;;4702603;30;20049;-79
2023/01/25 09:20:18;;;;;;;75.47;41.13;;;-0.40;96.70;;;;;;4701162;30;21628;-78
2023/01/25 09:22:44;;;;;;;76.77;41.70;;;-0.40;96.70;;;;;;4702101;30;20758;-79
2023/01/25 09:25:10;;;;;;;101.57;43.47;;;-0.40;96.70;;;;;;4701969;30;20068;-79
2023/01/25 09:27:36;;;;;;;107.53;44.70;;;-0.40;96.70;;;;;;4702419;30;20081;-79
2023/01/25 09:30:02;;;;;;;94.40;44.23;;;-0.30;96.90;;;;;;4701841;30;20414;-78
2023/01/25 09:32:27;;;;;;;77.57;40.80;;;-0.30;96.80;;;;;;4701906;30;20065;-79
2023/01/25 09:34:53;;;;;;;87.03;44.27;;;-0.30;96.80;;;;;;4715962;30;20054;-80
2023/01/25 09:37:19;;;;;;;94.93;45.77;;;-0.30;96.80;;;;;;4702728;30;20118;-80
2023/01/25 09:39:44;;;;;;;107.40;45.80;;;-0.30;96.80;;;;;;4701117;30;20057;-79
2023/01/25 09:42:17;;;;;;;85.27;42.90;;;-0.30;96.90;;;;;;4687896;30;20540;-78
2023/01/25 09:45:02;;;;;;;84.80;44.20;;;-0.30;97.00;;;;;;4700132;30;20065;-79
2023/01/25 09:48:02;;;;;;;81.33;43.43;;;-0.30;97.00;;;;;;4697655;30;20092;-78
2023/01/25 09:51:02;;;;;;;101.97;42.80;;;-0.20;96.90;;;;;;4716854;30;20063;-79
2023/01/25 09:53:38;;;;;;;85.73;43.77;;;-0.20;97.00;;;;;;4703956;30;20044;-80
2023/01/25 09:56:14;;;;;;;85.70;44.43;;;-0.20;97.10;;;;;;4702620;30;20065;-78
2023/01/25 09:58:44;;;;;;;83.53;42.97;;;-0.20;97.10;;;;;;4702878;30;20123;-78
2023/01/25 10:01:19;;;;;;;109.53;45.30;;;-0.20;97.00;;;;;;4704390;30;20056;-79
2023/01/25 10:03:54;;;;;;;86.70;45.53;;;-0.20;96.90;;;;;;4701231;30;20188;-79
2023/01/25 10:06:22;;;;;;;90.30;44.90;;;-0.20;96.90;;;;;;4720962;30;20059;-79
2023/01/25 10:09:14;;;;;;;90.65;46.28;;;-0.30;96.90;;;;;;4706205;30;20060;-80
2023/01/25 10:11:40;;;;;;;91.17;48.00;;;-0.20;97.10;;;;;;4668333;30;20619;-79
2023/01/25 10:14:17;;;;;;;85.30;44.70;;;-0.20;97.10;;;;;;4720987;30;20064;-79
2023/01/25 10:16:57;;;;;;;82.30;42.03;;;-0.20;97.10;;;;;;4718724;30;20056;-80
2023/01/25 10:19:51;;;;;;;84.73;42.83;;;-0.10;97.10;;;;;;4704338;30;20060;-79
2023/01/25 10:22:23;;;;;;;78.87;42.43;;;-0.10;97.00;;;;;;4710800;30;20084;-79
2023/01/25 10:25:34;;;;;;;78.90;41.83;;;-0.10;97.00;;;;;;4703300;30;20048;-80
2023/01/25 10:28:25;;;;;;;74.50;37.93;;;-0.10;97.00;;;;;;4699618;30;20144;-79
2023/01/25 10:30:53;;;;;;;75.43;38.33;;;-0.10;96.90;;;;;;4702150;30;20063;-79
2023/01/25 10:33:19;;;;;;;75.50;37.70;;;-0.20;96.80;;;;;;4719130;30;20057;-79
2023/01/25 10:35:48;;;;;;;76.60;39.37;;;-0.20;96.80;;;;;;4699989;30;20052;-80
2023/01/25 10:38:17;;;;;;;;;;;-0.20;96.80;;;;;;4703712;30;20060;-80
2023/01/25 10:40:49;;;;;;;75.30;38.00;;;-0.20;96.90;;;;;;4716404;30;20951;-78
2023/01/25 10:43:20;;;;;;;94.40;39.50;;;-0.20;96.90;;;;;;4701954;30;20048;-80
2023/01/25 10:45:47;;;;;;;88.63;40.97;;;-0.20;96.80;;;;;;4701061;30;20048;-81
2023/01/25 10:48:36;;;;;;;76.17;38.60;;;-0.20;96.90;;;;;;4702095;30;20075;-79
2023/01/25 10:51:01;;;;;;;73.27;38.23;;;-0.20;96.80;;;;;;4718841;30;20553;-79
2023/01/25 10:53:32;;;;;;;81.60;38.77;;;-0.20;96.80;;;;;;4700295;30;20132;-81
2023/01/25 10:56:00;;;;;;;75.47;40.40;;;-0.10;96.80;;;;;;4702526;30;20040;-80
2023/01/25 10:58:37;;;;;;;96.93;41.53;;;-0.10;96.80;;;;;;4701764;30;20065;-78
2023/01/25 11:01:06;;;;;;;81.47;43.27;;;-0.10;96.80;;;;;;4683816;30;20052;-81
2023/01/25 11:03:40;;;;;;;489.93;83.00;;;-0.10;96.90;;;;;;4700714;30;20918;-79
2023/01/25 11:06:08;;;;;;;84.77;42.87;;;-0.10;96.90;;;;;;4715658;30;20062;-80
2023/01/25 11:08:40;;;;;;;120.47;42.43;;;-0.10;97.10;;;;;;4718032;30;20094;-79
2023/01/25 11:11:24;;;;;;;86.83;43.60;;;-0.10;97.00;;;;;;4700518;30;20094;-79
2023/01/25 11:13:50;;;;;;;78.77;39.97;;;-0.10;97.00;;;;;;4699069;30;20159;-79
2023/01/25 11:16:38;;;;;;;73.83;38.50;;;-0.10;97.30;;;;;;4718886;30;20060;-79
2023/01/25 11:19:22;;;;;;;77.43;37.85;;;-0.10;96.90;;;;;;4684748;30;20139;-79
2023/01/25 11:21:53;;;;;;;72.10;36.60;;;-0.10;96.80;;;;;;4716488;30;20120;-77
2023/01/25 11:24:19;;;;;;;143.03;40.50;;;-0.10;96.80;;;;;;4702171;30;20494;-78
2023/01/25 11:26:45;;;;;;;81.20;38.50;;;-0.10;97.00;;;;;;4686082;30;20114;-79
2023/01/25 11:29:13;;;;;;;77.50;38.67;;;-0.10;97.00;;;;;;4701151;30;20049;-79
2023/01/25 11:31:40;;;;;;;72.13;36.40;;;-0.10;97.00;;;;;;4716650;30;20130;-79
2023/01/25 11:34:18;;;;;;;75.63;35.53;;;-0.10;97.00;;;;;;4700891;30;20083;-80
2023/01/25 11:37:05;;;;;;;180.57;37.93;;;-0.10;97.00;;;;;;4702406;30;20261;-79
2023/01/25 11:39:44;;;;;;;79.93;36.33;;;-0.10;97.10;;;;;;4702278;30;21083;-79
2023/01/25 11:42:28;;;;;;;82.45;36.47;;;-0.20;97.00;;;;;;4717110;30;20081;-76
2023/01/25 11:45:25;;;;;;;77.77;34.93;;;-0.20;97.20;;;;;;4699849;30;20052;-78
2023/01/25 11:48:10;;;;;;;78.83;36.63;;;-0.20;97.10;;;;;;4701885;30;20334;-77
2023/01/25 11:50:44;;;;;;;83.10;35.97;;;-0.20;97.10;;;;;;4700658;30;20076;-76
2023/01/25 11:53:47;;;;;;;77.47;34.93;;;-0.20;97.20;;;;;;4700759;30;20402;-79
2023/01/25 11:56:35;;;;;;;81.67;36.13;;;-0.20;97.10;;;;;;4715389;30;20068;-77
2023/01/25 11:59:30;;;;;;;83.20;37.40;;;-0.20;97.20;;;;;;4703053;30;20060;-78
2023/01/25 12:02:16;;;;;;;81.37;37.40;;;-0.20;97.20;;;;;;4713621;30;20064;-80
2023/01/25 12:05:30;;;;;;;79.23;36.47;;;-0.20;97.40;;;;;;4665596;30;20053;-80
2023/01/25 12:08:32;;;;;;;89.57;36.83;;;-0.10;97.30;;;;;;4716439;30;20762;-78
2023/01/25 12:10:57;;;;;;;82.50;37.50;;;-0.20;97.30;;;;;;4701107;30;20056;-79
2023/01/25 12:13:25;;;;;;;140.97;39.47;;;-0.20;97.30;;;;;;4699803;30;20063;-80
2023/01/25 12:16:14;;;;;;;104.18;46.03;;;-0.20;97.30;;;;;;4700376;30;20502;-77
2023/01/25 12:18:50;;;;;;;79.95;38.63;;;-0.20;97.30;;;;;;4699501;30;20057;-79
2023/01/25 12:21:22;;;;;;;75.07;35.63;;;-0.10;97.30;;;;;;4699099;30;20066;-78
2023/01/25 12:24:13;;;;;;;78.00;37.10;;;-0.10;97.30;;;;;;4698357;30;20065;-77
2023/01/25 12:27:05;;;;;;;77.07;36.00;;;-0.10;97.30;;;;;;4714442;30;20063;-78
2023/01/25 12:29:42;;;;;;;77.50;37.13;;;-0.10;97.30;;;;;;4691144;30;20080;-79
2023/01/25 12:32:26;;;;;;;73.67;34.57;;;0.00;97.20;;;;;;4699970;30;20611;-78
2023/01/25 12:35:09;;;;;;;81.27;36.63;;;0.00;97.20;;;;;;4700966;30;20593;-77
2023/01/25 12:37:38;;;;;;;79.13;36.53;;;0.00;97.20;;;;;;4704598;30;20167;-77
2023/01/25 12:40:11;;;;;;;80.03;34.53;;;0.00;97.10;;;;;;4700068;30;20048;-78
2023/01/25 12:42:47;;;;;;;77.63;33.13;;;0.00;97.10;;;;;;4702992;30;20064;-79
2023/01/25 12:45:21;;;;;;;141.70;35.43;;;0.00;97.10;;;;;;4702273;30;20098;-78